Time;durP1;ratioP1;P1;durP2;ratioP2;P2;SDS_P1;SDS_P2;PMS_P1;PMS_P2;Temp;Humidity;BMP_temperature;BMP_pressure;BME280_temperature;BME280_humidity;BME280_pressure;Samples;Min_cycle;Max_cycle;Signal;HPM_P1;HPM_P2
2023/04/08 00:00:01;;;;;;;7.60;4.18;;;4.90;99.90;;;;;;5033702;28;20091;-62
2023/04/08 00:02:27;;;;;;;10.35;4.97;;;4.80;99.90;;;;;;5052384;28;20040;-62
2023/04/08 00:04:52;;;;;;;9.18;5.13;;;4.80;99.90;;;;;;5052585;28;20041;-62
2023/04/08 00:07:18;;;;;;;9.38;5.60;;;4.80;99.90;;;;;;5033055;28;20410;-62
2023/04/08 00:09:44;;;;;;;11.20;5.53;;;4.80;99.90;;;;;;5034530;28;20041;-62
2023/04/08 00:12:10;;;;;;;10.25;5.85;;;4.70;99.90;;;;;;5034114;28;20083;-62
2023/04/08 00:14:37;;;;;;;9.93;5.95;;;4.70;99.90;;;;;;5016848;28;20040;-62
2023/04/08 00:17:02;;;;;;;10.55;5.00;;;4.70;99.90;;;;;;5034176;28;20124;-62
2023/04/08 00:19:28;;;;;;;11.68;5.65;;;4.60;99.90;;;;;;5033753;28;20174;-62
2023/04/08 00:21:54;;;;;;;10.32;6.60;;;4.60;99.90;;;;;;5034141;28;20497;-62
2023/04/08 00:24:20;;;;;;;10.55;5.90;;;4.60;99.90;;;;;;5014013;28;20445;-62
2023/04/08 00:26:45;;;;;;;10.95;5.60;;;4.60;99.90;;;;;;5014548;28;20405;-62
2023/04/08 00:29:11;;;;;;;12.95;6.10;;;4.60;99.90;;;;;;5030942;28;20059;-62
2023/04/08 00:31:36;;;;;;;9.55;6.15;;;4.60;99.90;;;;;;5014595;28;20513;-62
2023/04/08 00:34:02;;;;;;;11.23;6.78;;;4.50;99.90;;;;;;5014464;28;20037;-62
2023/04/08 00:36:28;;;;;;;9.38;6.45;;;4.50;99.90;;;;;;4997030;28;20047;-62
2023/04/08 00:38:54;;;;;;;11.63;7.88;;;4.50;99.90;;;;;;5032029;28;20041;-62
2023/04/08 00:41:20;;;;;;;11.13;6.22;;;4.40;99.90;;;;;;5030739;28;20041;-62
2023/04/08 00:43:45;;;;;;;11.13;6.80;;;4.40;99.90;;;;;;5032014;28;20065;-62
2023/04/08 00:46:11;;;;;;;11.02;6.70;;;4.40;99.90;;;;;;5031741;28;20033;-62
2023/04/08 00:48:37;;;;;;;10.90;7.40;;;4.40;99.90;;;;;;5013468;28;20049;-62
2023/04/08 00:51:03;;;;;;;12.70;6.88;;;4.30;99.90;;;;;;5014070;28;20052;-62
2023/04/08 00:53:30;;;;;;;11.10;7.32;;;4.30;99.90;;;;;;4997607;28;20056;-62
2023/04/08 00:55:55;;;;;;;10.55;7.18;;;4.30;99.90;;;;;;5031146;28;20483;-62
2023/04/08 00:58:21;;;;;;;12.73;7.63;;;4.30;99.90;;;;;;5013872;28;20049;-62
2023/04/08 01:01:02;;;;;;;14.23;8.00;;;4.30;99.90;;;;;;5033468;28;20495;-62
2023/04/08 01:03:39;;;;;;;14.50;8.40;;;4.20;99.90;;;;;;5016489;28;20041;-62
2023/04/08 01:06:26;;;;;;;12.88;7.55;;;4.20;99.90;;;;;;5033589;28;20040;-62
2023/04/08 01:08:53;;;;;;;13.35;8.35;;;4.20;99.90;;;;;;4997782;28;20108;-61
2023/04/08 01:11:20;;;;;;;12.38;7.75;;;4.20;99.90;;;;;;5030396;28;20038;-61
2023/04/08 01:13:51;;;;;;;16.48;8.95;;;4.20;99.90;;;;;;5030365;28;20041;-62
2023/04/08 01:16:18;;;;;;;16.75;9.20;;;4.20;99.90;;;;;;5013539;28;20552;-62
2023/04/08 01:18:45;;;;;;;14.13;9.30;;;4.20;99.90;;;;;;5013302;28;20050;-61
2023/04/08 01:21:12;;;;;;;13.80;8.60;;;4.20;99.90;;;;;;5013593;28;20084;-61
2023/04/08 01:24:19;;;;;;;13.75;9.52;;;4.20;99.90;;;;;;5013084;28;20458;-62
2023/04/08 01:26:45;;;;;;;14.00;8.40;;;4.10;99.90;;;;;;5021156;28;20049;-62
2023/04/08 01:29:12;;;;;;;15.93;9.40;;;4.10;99.90;;;;;;5013443;28;20038;-61
2023/04/08 01:31:40;;;;;;;15.48;9.40;;;4.10;99.90;;;;;;5014226;28;20037;-62
2023/04/08 01:34:07;;;;;;;15.10;9.10;;;4.10;99.90;;;;;;5017691;28;20433;-61
2023/04/08 01:36:36;;;;;;;15.52;10.20;;;4.10;99.90;;;;;;5035143;28;20113;-61
2023/04/08 01:39:04;;;;;;;13.93;9.48;;;4.10;99.90;;;;;;5016169;28;20041;-61
2023/04/08 01:41:32;;;;;;;15.23;10.07;;;4.00;99.90;;;;;;5017244;28;20041;-61
2023/04/08 01:43:58;;;;;;;15.10;10.32;;;4.00;99.90;;;;;;5017424;28;20038;-61
2023/04/08 01:46:25;;;;;;;15.52;9.35;;;4.00;99.90;;;;;;5016320;28;20048;-62
2023/04/08 01:48:51;;;;;;;15.98;10.15;;;4.00;99.90;;;;;;5017438;28;20030;-61
2023/04/08 01:51:17;;;;;;;16.77;11.50;;;4.00;99.90;;;;;;5016741;28;20077;-62
2023/04/08 01:53:43;;;;;;;15.50;10.40;;;4.00;99.90;;;;;;5010490;28;20045;-62
2023/04/08 01:56:12;;;;;;;16.40;10.77;;;3.90;99.90;;;;;;4997441;28;20042;-61
2023/04/08 01:58:47;;;;;;;15.80;10.45;;;3.90;99.90;;;;;;4980703;28;20048;-62
2023/04/08 02:01:17;;;;;;;17.83;10.73;;;3.90;99.90;;;;;;4981023;28;20096;-62
2023/04/08 02:03:45;;;;;;;16.52;11.32;;;3.90;99.90;;;;;;4981450;28;20380;-62
2023/04/08 02:06:11;;;;;;;18.23;11.93;;;3.90;99.90;;;;;;4996474;28;20050;-62
2023/04/08 02:08:37;;;;;;;16.38;11.43;;;3.90;99.90;;;;;;5014996;28;20164;-62
2023/04/08 02:11:02;;;;;;;18.05;10.50;;;3.90;99.90;;;;;;5016748;28;20110;-62
2023/04/08 02:13:30;;;;;;;17.10;11.30;;;3.90;99.90;;;;;;4999746;28;20447;-62
2023/04/08 02:16:48;;;;;;;18.10;11.38;;;3.80;99.90;;;;;;5016931;28;20041;-61
2023/04/08 02:19:23;;;;;;;18.42;11.70;;;3.80;99.90;;;;;;5015632;28;20053;-61
2023/04/08 02:21:54;;;;;;;15.48;10.85;;;3.80;99.90;;;;;;5019336;28;20490;-61
2023/04/08 02:24:21;;;;;;;18.95;12.55;;;3.80;99.90;;;;;;5036348;28;20397;-61
2023/04/08 02:26:50;;;;;;;18.05;11.68;;;3.80;99.90;;;;;;5036525;28;20367;-61
2023/04/08 02:29:17;;;;;;;19.13;12.55;;;3.80;99.90;;;;;;5053807;28;20138;-62
2023/04/08 02:31:43;;;;;;;19.17;12.77;;;3.70;99.90;;;;;;5036443;28;20048;-61
2023/04/08 02:34:10;;;;;;;18.77;12.38;;;3.70;99.90;;;;;;5052703;28;20888;-62
2023/04/08 02:36:37;;;;;;;21.58;13.38;;;3.70;99.90;;;;;;5036005;28;20045;-62
2023/04/08 02:39:03;;;;;;;19.55;13.02;;;3.70;99.90;;;;;;5031957;28;20041;-62
2023/04/08 02:41:30;;;;;;;18.50;13.15;;;3.70;99.90;;;;;;5032816;28;20091;-61
2023/04/08 02:43:56;;;;;;;23.00;13.13;;;3.70;99.90;;;;;;5016387;28;20040;-62
2023/04/08 02:46:22;;;;;;;18.33;12.85;;;3.70;99.90;;;;;;5033394;28;20042;-61
2023/04/08 02:48:47;;;;;;;21.02;13.68;;;3.60;99.90;;;;;;4998912;28;20048;-62
2023/04/08 02:51:13;;;;;;;20.27;12.55;;;3.70;99.90;;;;;;5015981;28;20049;-61
2023/04/08 02:53:39;;;;;;;22.73;14.95;;;3.70;99.90;;;;;;5016042;28;20457;-62
2023/04/08 02:56:05;;;;;;;22.15;14.80;;;3.70;99.90;;;;;;5032920;28;20491;-62
2023/04/08 02:58:30;;;;;;;22.80;15.15;;;3.70;99.90;;;;;;5033523;28;20052;-61
2023/04/08 03:00:56;;;;;;;21.95;16.02;;;3.70;99.90;;;;;;5033727;28;20033;-62
2023/04/08 03:03:29;;;;;;;21.55;15.07;;;3.70;99.90;;;;;;5032105;28;20397;-62
2023/04/08 03:05:55;;;;;;;21.38;15.27;;;3.70;99.90;;;;;;4999854;28;20433;-62
2023/04/08 03:08:21;;;;;;;22.25;15.02;;;3.70;99.90;;;;;;4999356;28;20460;-62
2023/04/08 03:10:48;;;;;;;23.75;15.32;;;3.70;99.90;;;;;;4995729;28;20491;-61
2023/04/08 03:13:14;;;;;;;24.52;16.30;;;3.70;99.90;;;;;;4996111;28;20046;-61
2023/04/08 03:15:40;;;;;;;20.95;15.05;;;3.70;99.90;;;;;;5013462;28;20034;-61
2023/04/08 03:18:06;;;;;;;25.95;16.75;;;3.70;99.90;;;;;;4995431;28;20483;-61
2023/04/08 03:20:31;;;;;;;24.35;15.85;;;3.70;99.90;;;;;;5013299;28;20046;-61
2023/04/08 03:22:57;;;;;;;23.52;15.02;;;3.70;99.90;;;;;;4995964;28;20041;-61
2023/04/08 03:25:23;;;;;;;25.77;15.93;;;3.70;99.90;;;;;;4994752;28;20037;-61
2023/04/08 03:27:48;;;;;;;25.38;16.67;;;3.70;99.90;;;;;;4995948;28;20125;-61
2023/04/08 03:30:14;;;;;;;24.17;17.33;;;3.70;99.90;;;;;;4994790;28;20040;-61
2023/04/08 03:32:40;;;;;;;26.35;18.60;;;3.70;99.90;;;;;;4979638;28;20077;-61
2023/04/08 03:35:05;;;;;;;27.52;16.38;;;3.70;99.90;;;;;;4979697;28;20376;-61
2023/04/08 03:37:31;;;;;;;23.70;16.63;;;3.70;99.90;;;;;;4994975;28;20051;-61
2023/04/08 03:39:57;;;;;;;26.98;17.52;;;3.70;99.90;;;;;;5013330;28;20076;-61
2023/04/08 03:42:23;;;;;;;25.75;16.98;;;3.70;99.90;;;;;;4979086;28;20405;-62
2023/04/08 03:44:48;;;;;;;28.90;18.90;;;3.70;99.90;;;;;;4994878;28;20041;-62
2023/04/08 03:47:14;;;;;;;30.42;19.20;;;3.70;99.90;;;;;;4979190;28;20469;-61
2023/04/08 03:49:40;;;;;;;26.90;18.42;;;3.60;99.90;;;;;;5013212;28;20044;-61
2023/04/08 03:52:06;;;;;;;24.90;16.83;;;3.60;99.90;;;;;;4982302;28;20481;-61
2023/04/08 03:54:32;;;;;;;24.30;16.27;;;3.60;99.90;;;;;;5014398;28;20068;-62
2023/04/08 03:56:57;;;;;;;24.77;16.77;;;3.60;99.90;;;;;;5015465;28;20049;-61
2023/04/08 03:59:23;;;;;;;23.35;16.33;;;3.60;99.90;;;;;;5031128;28;20126;-61
2023/04/08 04:01:50;;;;;;;28.38;17.60;;;3.50;99.90;;;;;;5032317;28;20040;-62
2023/04/08 04:04:15;;;;;;;25.73;17.10;;;3.50;99.90;;;;;;5032113;28;20069;-62
2023/04/08 04:06:41;;;;;;;24.00;17.33;;;3.50;99.90;;;;;;5016400;28;20481;-62
2023/04/08 04:09:07;;;;;;;26.35;17.52;;;3.50;99.90;;;;;;5033999;28;20045;-61
2023/04/08 04:11:36;;;;;;;28.83;18.27;;;3.40;99.90;;;;;;5034494;28;20059;-62
2023/04/08 04:14:02;;;;;;;24.40;16.80;;;3.40;99.90;;;;;;5017027;28;20485;-61
2023/04/08 04:16:27;;;;;;;27.55;18.88;;;3.40;99.90;;;;;;5034545;28;20052;-62
2023/04/08 04:18:53;;;;;;;28.38;18.10;;;3.40;99.90;;;;;;5052198;28;20045;-61
2023/04/08 04:21:19;;;;;;;23.98;17.13;;;3.40;99.90;;;;;;5050934;28;20037;-61
2023/04/08 04:23:44;;;;;;;26.80;18.00;;;3.40;99.90;;;;;;5051832;28;20539;-62
2023/04/08 04:26:11;;;;;;;27.70;18.38;;;3.30;99.90;;;;;;5034245;28;20033;-62
2023/04/08 04:28:37;;;;;;;29.45;19.80;;;3.30;99.90;;;;;;5033089;28;20569;-61
2023/04/08 04:31:04;;;;;;;26.52;18.35;;;3.30;99.90;;;;;;5034418;28;20049;-62
2023/04/08 04:33:30;;;;;;;27.85;19.63;;;3.30;99.90;;;;;;5050834;28;20048;-61
2023/04/08 04:35:56;;;;;;;27.77;19.40;;;3.30;99.90;;;;;;5034291;28;20528;-62
2023/04/08 04:38:21;;;;;;;26.35;18.52;;;3.30;99.90;;;;;;5033622;28;20078;-62
2023/04/08 04:40:47;;;;;;;27.17;17.42;;;3.40;99.90;;;;;;5033254;28;20048;-62
2023/04/08 04:43:13;;;;;;;31.17;19.88;;;3.40;99.90;;;;;;5017110;28;20412;-62
2023/04/08 04:45:38;;;;;;;31.25;20.02;;;3.40;99.90;;;;;;5051991;28;20044;-62
2023/04/08 04:48:04;;;;;;;28.67;18.17;;;3.40;99.90;;;;;;5051060;28;20082;-61
2023/04/08 04:50:30;;;;;;;31.67;22.08;;;3.40;99.90;;;;;;5033443;28;20040;-62
2023/04/08 04:52:55;;;;;;;32.10;23.70;;;3.50;99.90;;;;;;5033877;28;20448;-61
2023/04/08 04:55:21;;;;;;;32.70;24.50;;;3.50;99.90;;;;;;5033030;28;20040;-61
2023/04/08 04:57:50;;;;;;;28.58;19.65;;;3.50;99.90;;;;;;5033776;28;20497;-61
2023/04/08 05:00:16;;;;;;;29.25;19.48;;;3.50;99.90;;;;;;5033426;28;20044;-61
2023/04/08 05:02:41;;;;;;;30.33;19.55;;;3.50;99.90;;;;;;5033313;28;20094;-61
2023/04/08 05:05:07;;;;;;;31.08;20.73;;;3.50;99.90;;;;;;5017377;28;20040;-60
2023/04/08 05:07:37;;;;;;;31.42;19.85;;;3.50;99.90;;;;;;5020078;28;20186;-61
2023/04/08 05:10:04;;;;;;;33.15;21.00;;;3.50;99.90;;;;;;5054737;28;20057;-61
2023/04/08 05:12:30;;;;;;;33.50;26.48;;;3.50;99.90;;;;;;5055037;28;20037;-61
2023/04/08 05:14:59;;;;;;;32.40;20.50;;;3.50;99.90;;;;;;5021414;28;20060;-60
2023/04/08 05:17:25;;;;;;;29.95;19.65;;;3.40;99.90;;;;;;5050626;28;20044;-61
2023/04/08 05:19:52;;;;;;;27.02;18.67;;;3.40;99.90;;;;;;5035638;28;20041;-61
2023/04/08 05:22:18;;;;;;;31.55;21.02;;;3.40;99.90;;;;;;5034948;28;20490;-61
2023/04/08 05:24:43;;;;;;;26.98;19.42;;;3.40;99.90;;;;;;5034806;28;20111;-60
2023/04/08 05:27:09;;;;;;;30.80;21.38;;;3.40;99.90;;;;;;5025169;28;20037;-61
2023/04/08 05:29:34;;;;;;;25.35;19.10;;;3.40;99.90;;;;;;5037062;28;20215;-61
2023/04/08 05:32:00;;;;;;;27.60;20.05;;;3.50;99.90;;;;;;5054229;28;20149;-60
2023/04/08 05:34:26;;;;;;;26.88;19.23;;;3.50;99.90;;;;;;5020469;28;20048;-61
2023/04/08 05:36:51;;;;;;;31.02;21.92;;;3.50;99.90;;;;;;5036900;28;20049;-61
2023/04/08 05:39:18;;;;;;;27.55;19.08;;;3.50;99.90;;;;;;5036828;28;20516;-61
2023/04/08 05:41:44;;;;;;;30.45;20.67;;;3.50;99.90;;;;;;5055032;28;20037;-61
2023/04/08 05:44:11;;;;;;;27.45;19.75;;;3.60;99.90;;;;;;5036230;28;20429;-61
2023/04/08 05:46:37;;;;;;;29.45;19.75;;;3.60;99.90;;;;;;5037005;28;20120;-61
2023/04/08 05:49:03;;;;;;;29.95;19.63;;;3.70;99.90;;;;;;5037371;28;20039;-61
2023/04/08 05:51:28;;;;;;;28.25;20.55;;;3.70;99.90;;;;;;5036648;28;20390;-61
2023/04/08 05:53:54;;;;;;;30.17;22.42;;;3.70;99.90;;;;;;5054997;28;20555;-61
2023/04/08 05:56:20;;;;;;;33.15;22.25;;;3.80;99.90;;;;;;5036050;28;20041;-61
2023/04/08 05:58:46;;;;;;;24.48;17.85;;;3.80;99.90;;;;;;5036371;28;20040;-61
2023/04/08 06:01:12;;;;;;;29.88;20.65;;;3.90;99.90;;;;;;5020430;28;20049;-61
2023/04/08 06:03:37;;;;;;;28.10;19.15;;;3.90;99.90;;;;;;5019847;28;20031;-61
2023/04/08 06:06:03;;;;;;;28.55;20.52;;;4.00;99.90;;;;;;5035776;28;20124;-61
2023/04/08 06:08:29;;;;;;;33.55;20.00;;;4.10;99.90;;;;;;5019706;28;20623;-61
2023/04/08 06:10:55;;;;;;;29.92;20.42;;;4.10;99.90;;;;;;5036334;28;20140;-61
2023/04/08 06:13:20;;;;;;;28.85;20.17;;;4.20;99.90;;;;;;5031619;28;20041;-61
2023/04/08 06:15:47;;;;;;;29.05;20.58;;;4.20;99.90;;;;;;5036791;28;20121;-61
2023/04/08 06:18:15;;;;;;;31.67;22.45;;;4.30;99.90;;;;;;5035944;28;20051;-61
2023/04/08 06:20:40;;;;;;;34.28;21.50;;;4.40;99.90;;;;;;5053631;28;20398;-61
2023/04/08 06:23:06;;;;;;;28.80;19.25;;;4.40;99.90;;;;;;5054107;28;20048;-61
2023/04/08 06:25:32;;;;;;;31.08;21.52;;;4.50;99.90;;;;;;5054331;28;20462;-75
2023/04/08 06:27:57;;;;;;;31.13;19.65;;;4.60;99.90;;;;;;5028122;28;20095;-75
2023/04/08 06:30:23;;;;;;;45.83;30.50;;;4.70;99.90;;;;;;5013500;28;20052;-76
2023/04/08 06:32:49;;;;;;;50.45;33.70;;;4.80;99.90;;;;;;5013936;28;20064;-72
2023/04/08 06:35:14;;;;;;;33.60;22.90;;;4.80;99.90;;;;;;5012622;28;20038;-76
2023/04/08 06:37:40;;;;;;;35.75;23.70;;;4.90;99.90;;;;;;5013720;28;20037;-75
2023/04/08 06:40:06;;;;;;;29.30;18.45;;;4.90;99.90;;;;;;5019426;28;20127;-74
2023/04/08 06:42:32;;;;;;;29.27;18.75;;;4.90;99.90;;;;;;5033189;28;20500;-76
2023/04/08 06:44:58;;;;;;;28.60;19.42;;;4.90;99.90;;;;;;5030773;28;20048;-76
2023/04/08 06:47:24;;;;;;;25.30;18.73;;;4.90;99.90;;;;;;5043999;28;20116;-77
2023/04/08 06:49:49;;;;;;;27.10;19.15;;;5.00;99.90;;;;;;4998803;28;20714;-76
2023/04/08 06:52:17;;;;;;;26.38;18.60;;;5.00;99.90;;;;;;5014973;28;20421;-78
2023/04/08 06:54:43;;;;;;;33.97;23.38;;;5.10;99.90;;;;;;5032576;28;20789;-78
2023/04/08 06:57:08;;;;;;;33.05;20.70;;;5.10;99.90;;;;;;5035354;28;20188;-76
2023/04/08 06:59:34;;;;;;;27.52;19.98;;;5.20;99.90;;;;;;5018423;28;20436;-76
2023/04/08 07:02:00;;;;;;;31.90;20.77;;;5.20;99.90;;;;;;5035032;28;20063;-76
2023/04/08 07:04:25;;;;;;;26.17;17.90;;;5.30;99.90;;;;;;5053111;28;20461;-76
2023/04/08 07:06:51;;;;;;;26.00;18.20;;;5.40;99.90;;;;;;5024744;28;20093;-76
2023/04/08 07:09:17;;;;;;;34.88;21.52;;;5.50;99.90;;;;;;4999173;28;20056;-76
2023/04/08 07:11:43;;;;;;;31.90;20.70;;;5.50;99.90;;;;;;5033792;28;20072;-77
2023/04/08 07:14:09;;;;;;;37.05;24.00;;;5.60;99.90;;;;;;5043830;28;20041;-77
2023/04/08 07:16:34;;;;;;;28.10;19.23;;;5.70;99.90;;;;;;5032998;28;20045;-78
2023/04/08 07:19:00;;;;;;;27.48;18.58;;;5.80;99.90;;;;;;5015817;28;20049;-77
2023/04/08 07:21:26;;;;;;;29.00;20.25;;;5.90;99.90;;;;;;5015770;28;20080;-77
2023/04/08 07:23:52;;;;;;;34.75;22.42;;;6.00;99.90;;;;;;5015807;28;20044;-77
2023/04/08 07:26:18;;;;;;;26.23;18.35;;;6.10;99.90;;;;;;5014947;28;20120;-76
2023/04/08 07:28:43;;;;;;;43.00;27.75;;;6.10;99.90;;;;;;5015065;28;20593;-77
2023/04/08 07:31:14;;;;;;;24.27;15.48;;;6.20;99.90;;;;;;5016391;28;20041;-76
2023/04/08 07:33:40;;;;;;;22.73;15.98;;;6.20;99.90;;;;;;5050562;28;20801;-76
2023/04/08 07:36:08;;;;;;;21.20;13.65;;;6.30;99.90;;;;;;5006379;28;20049;-76
2023/04/08 07:38:34;;;;;;;21.45;14.57;;;6.50;99.90;;;;;;5017118;28;20047;-76
2023/04/08 07:41:03;;;;;;;17.60;12.60;;;6.60;99.90;;;;;;5020953;28;20038;-77
2023/04/08 07:43:31;;;;;;;27.27;16.27;;;6.70;99.90;;;;;;5034193;28;20045;-77
2023/04/08 07:46:03;;;;;;;17.27;11.98;;;6.70;99.90;;;;;;5049036;28;20401;-78
2023/04/08 07:48:33;;;;;;;21.80;11.95;;;6.80;99.90;;;;;;5034543;28;20484;-78
2023/04/08 07:51:06;;;;;;;17.60;11.95;;;6.80;99.90;;;;;;5018079;28;20055;-77
2023/04/08 07:53:33;;;;;;;15.80;9.80;;;6.70;99.90;;;;;;5042270;28;20068;-77
2023/04/08 07:55:59;;;;;;;16.73;11.13;;;6.70;99.90;;;;;;5033887;28;20049;-78
2023/04/08 07:58:31;;;;;;;16.65;10.65;;;6.70;99.90;;;;;;5032050;28;20041;-78
2023/04/08 08:00:57;;;;;;;17.38;11.13;;;6.80;99.90;;;;;;5002735;28;20124;-78
2023/04/08 08:03:23;;;;;;;15.32;10.70;;;6.80;99.90;;;;;;5019734;28;20052;-77
2023/04/08 08:05:48;;;;;;;13.10;8.80;;;7.00;99.90;;;;;;5033025;28;20037;-77
2023/04/08 08:08:14;;;;;;;15.70;10.20;;;7.10;99.90;;;;;;5014378;28;20056;-77
2023/04/08 08:10:40;;;;;;;14.57;9.70;;;7.10;99.90;;;;;;5031798;28;20080;-77
2023/04/08 08:13:07;;;;;;;12.07;8.43;;;7.20;99.90;;;;;;5000055;28;20496;-77
2023/04/08 08:15:32;;;;;;;13.65;8.85;;;7.30;99.90;;;;;;5031389;28;20051;-78
2023/04/08 08:17:59;;;;;;;15.07;9.98;;;7.40;99.90;;;;;;5023401;28;20037;-77
2023/04/08 08:20:25;;;;;;;12.70;8.82;;;7.40;99.90;;;;;;5032357;28;20041;-76
2023/04/08 08:22:50;;;;;;;13.93;8.30;;;7.40;99.90;;;;;;5034401;28;20040;-76
2023/04/08 08:25:16;;;;;;;12.88;8.38;;;7.50;99.90;;;;;;5033923;28;20119;-76
2023/04/08 08:27:42;;;;;;;14.85;9.73;;;7.40;99.90;;;;;;5014733;28;20659;-74
2023/04/08 08:30:08;;;;;;;12.82;7.50;;;7.40;99.90;;;;;;5024030;28;20045;-76
2023/04/08 08:32:35;;;;;;;12.10;8.52;;;7.40;99.90;;;;;;5046156;28;20048;-76
2023/04/08 08:35:01;;;;;;;13.73;9.07;;;7.40;99.90;;;;;;5049670;28;20043;-76
2023/04/08 08:37:29;;;;;;;13.05;8.73;;;7.30;99.90;;;;;;5044705;28;20116;-76
2023/04/08 08:39:55;;;;;;;15.88;8.52;;;7.30;99.90;;;;;;5014514;28;20095;-76
2023/04/08 08:42:25;;;;;;;13.60;9.38;;;7.30;99.90;;;;;;5032120;28;20068;-76
2023/04/08 08:44:51;;;;;;;13.95;9.13;;;7.30;99.90;;;;;;5031347;28;20033;-75
2023/04/08 08:47:17;;;;;;;13.52;8.60;;;7.30;99.90;;;;;;5033276;28;20087;-75
2023/04/08 08:49:43;;;;;;;14.75;9.90;;;7.30;99.90;;;;;;5034286;28;20037;-75
2023/04/08 08:52:10;;;;;;;15.55;10.07;;;7.30;99.90;;;;;;5052102;28;20044;-76
2023/04/08 08:54:36;;;;;;;24.52;14.88;;;7.30;99.90;;;;;;5051904;28;20120;-77
2023/04/08 08:57:02;;;;;;;22.70;14.07;;;7.30;99.90;;;;;;5026745;28;20094;-77
2023/04/08 08:59:28;;;;;;;17.40;11.57;;;7.30;99.90;;;;;;5052096;28;20540;-78
2023/04/08 09:01:53;;;;;;;15.60;10.02;;;7.20;99.90;;;;;;5033989;28;20508;-79
2023/04/08 09:04:21;;;;;;;15.63;10.63;;;7.20;99.90;;;;;;5001856;28;20033;-79
2023/04/08 09:07:12;;;;;;;14.93;10.23;;;7.20;99.90;;;;;;5032401;28;20056;-79
2023/04/08 09:09:48;;;;;;;15.38;10.85;;;7.20;99.90;;;;;;5007016;28;20045;-78
2023/04/08 09:12:14;;;;;;;20.20;11.98;;;7.30;99.90;;;;;;5025728;28;20053;-79
2023/04/08 09:18:25;;;;;;;14.55;9.75;;;7.40;99.90;;;;;;5034658;28;20040;-77
2023/04/08 09:20:53;;;;;;;21.95;13.85;;;7.40;99.90;;;;;;5033935;28;20049;-77
2023/04/08 09:23:19;;;;;;;33.72;19.40;;;7.40;99.90;;;;;;5039456;28;20048;-77
2023/04/08 09:25:45;;;;;;;44.78;23.88;;;7.40;99.90;;;;;;5047911;28;20033;-77
2023/04/08 09:28:20;;;;;;;16.33;10.88;;;7.40;99.90;;;;;;5033187;28;20065;-77
2023/04/08 09:30:46;;;;;;;;;;;7.50;99.90;;;;;;5051341;28;20497;-77
2023/04/08 09:33:12;;;;;;;17.58;14.75;;;7.50;99.90;;;;;;5033708;28;19916;-77
2023/04/08 09:35:38;;;;;;;16.88;11.27;;;7.40;99.90;;;;;;5033680;28;20043;-77
2023/04/08 09:38:04;;;;;;;16.65;11.85;;;7.40;99.90;;;;;;5033342;28;20041;-77
2023/04/08 09:40:35;;;;;;;24.13;12.95;;;7.50;99.90;;;;;;5029878;28;20112;-77
2023/04/08 09:43:04;;;;;;;16.10;10.15;;;7.50;99.90;;;;;;5013716;28;20037;-77
2023/04/08 09:45:35;;;;;;;16.98;10.57;;;7.50;99.90;;;;;;5014038;28;20120;-77
2023/04/08 09:48:08;;;;;;;17.13;12.43;;;7.50;99.90;;;;;;5014190;28;20087;-76
2023/04/08 09:50:42;;;;;;;15.43;10.90;;;7.50;99.90;;;;;;5014040;28;20921;-77
2023/04/08 09:53:19;;;;;;;15.30;10.15;;;7.50;99.90;;;;;;5034092;28;20037;-75
2023/04/08 09:55:50;;;;;;;15.60;10.65;;;7.50;99.90;;;;;;5017838;28;20045;-77
2023/04/08 09:58:28;;;;;;;16.25;10.45;;;7.50;99.90;;;;;;5001079;28;20120;-75
2023/04/08 10:00:54;;;;;;;17.05;10.75;;;7.60;99.90;;;;;;5050952;28;20045;-79
2023/04/08 10:03:36;;;;;;;16.27;11.10;;;7.60;99.90;;;;;;5016806;28;20045;-76
2023/04/08 10:06:02;;;;;;;17.23;10.65;;;7.70;99.90;;;;;;5050033;28;20048;-75
2023/04/08 10:08:30;;;;;;;18.35;11.23;;;7.70;99.90;;;;;;5034454;28;20061;-74
2023/04/08 10:10:56;;;;;;;20.88;12.07;;;7.70;99.90;;;;;;5035131;28;20041;-74
2023/04/08 10:13:23;;;;;;;15.35;10.18;;;7.70;99.90;;;;;;5050255;28;20450;-74
2023/04/08 10:15:48;;;;;;;15.90;11.10;;;7.80;99.90;;;;;;5050425;28;20064;-72
2023/04/08 10:18:17;;;;;;;16.20;11.07;;;7.80;99.90;;;;;;5025502;28;20490;-72
2023/04/08 10:20:44;;;;;;;16.10;11.02;;;7.80;99.90;;;;;;5036757;28;20505;-72
2023/04/08 10:23:15;;;;;;;31.45;19.80;;;7.80;99.90;;;;;;5054583;28;20529;-72
2023/04/08 10:25:43;;;;;;;20.25;12.80;;;7.90;99.90;;;;;;5036868;28;20029;-72
2023/04/08 10:28:16;;;;;;;20.38;12.85;;;7.90;99.90;;;;;;5054696;28;20048;-73
2023/04/08 10:30:56;;;;;;;15.52;10.77;;;7.90;99.90;;;;;;5017674;28;20056;-73
2023/04/08 10:33:40;;;;;;;16.52;10.65;;;8.10;99.90;;;;;;5034534;28;20059;-72
2023/04/08 10:36:13;;;;;;;13.70;9.75;;;8.10;99.90;;;;;;5034526;28;20037;-72
2023/04/08 10:38:41;;;;;;;19.23;11.02;;;8.00;99.90;;;;;;5018552;28;20498;-72
2023/04/08 10:41:09;;;;;;;16.25;9.70;;;8.10;99.90;;;;;;5034091;28;20073;-72
2023/04/08 10:43:35;;;;;;;16.20;9.75;;;8.10;99.90;;;;;;5017901;28;20064;-73
2023/04/08 10:46:03;;;;;;;14.95;10.35;;;8.20;99.90;;;;;;5031727;28;20033;-73
2023/04/08 10:48:29;;;;;;;14.60;10.23;;;8.20;99.90;;;;;;5039205;28;20041;-72
2023/04/08 10:51:02;;;;;;;17.08;10.27;;;8.30;99.90;;;;;;5034684;28;20417;-72
2023/04/08 10:53:35;;;;;;;15.23;9.57;;;8.30;99.90;;;;;;5054024;28;20041;-72
2023/04/08 10:56:08;;;;;;;14.25;9.43;;;8.30;99.90;;;;;;5019490;28;20119;-72
2023/04/08 10:58:35;;;;;;;14.82;10.18;;;8.30;99.90;;;;;;5019451;28;20048;-72
2023/04/08 11:01:07;;;;;;;15.48;10.35;;;8.30;99.90;;;;;;5035511;28;20178;-73
2023/04/08 11:03:34;;;;;;;17.15;9.50;;;8.30;99.90;;;;;;5032218;28;20068;-73
2023/04/08 11:06:01;;;;;;;17.42;11.05;;;8.30;99.90;;;;;;5035475;28;20041;-72
2023/04/08 11:08:35;;;;;;;16.45;10.55;;;8.30;99.90;;;;;;5053392;28;20575;-72
2023/04/08 11:11:02;;;;;;;18.10;10.95;;;8.40;99.90;;;;;;5034806;28;20089;-73
2023/04/08 11:13:29;;;;;;;17.67;10.57;;;8.40;99.90;;;;;;5036053;28;20041;-72
2023/04/08 11:15:57;;;;;;;14.38;9.57;;;8.40;99.90;;;;;;5053711;28;20071;-73
2023/04/08 11:18:23;;;;;;;15.70;10.77;;;8.50;99.90;;;;;;5053701;28;20044;-73
2023/04/08 11:20:52;;;;;;;15.38;10.13;;;8.60;99.90;;;;;;5021517;28;20129;-72
2023/04/08 11:23:19;;;;;;;18.42;11.10;;;8.70;99.90;;;;;;5015054;28;20044;-73
2023/04/08 11:25:47;;;;;;;19.65;11.57;;;8.70;99.90;;;;;;5025875;28;20037;-71
2023/04/08 11:28:16;;;;;;;23.23;12.18;;;8.70;99.90;;;;;;5049887;28;20359;-72
2023/04/08 11:30:42;;;;;;;19.40;12.43;;;8.70;99.90;;;;;;5050322;28;20179;-71
2023/04/08 11:33:09;;;;;;;20.95;14.05;;;8.70;99.90;;;;;;5029085;28;20044;-71
2023/04/08 11:35:40;;;;;;;22.10;12.65;;;8.80;99.90;;;;;;5029123;28;20052;-70
2023/04/08 11:38:07;;;;;;;19.65;11.38;;;8.80;99.90;;;;;;5031613;28;20067;-71
2023/04/08 11:40:33;;;;;;;20.83;12.25;;;8.90;99.90;;;;;;4998053;28;20041;-71
2023/04/08 11:43:09;;;;;;;24.90;14.55;;;8.90;99.90;;;;;;5032020;28;20092;-72
2023/04/08 11:45:38;;;;;;;26.48;15.77;;;8.90;99.90;;;;;;5032333;28;20041;-71
2023/04/08 11:48:12;;;;;;;26.13;16.92;;;8.90;99.90;;;;;;5040698;28;20079;-72
2023/04/08 11:50:38;;;;;;;29.23;15.73;;;9.00;99.90;;;;;;5033296;28;20509;-72
2023/04/08 11:53:24;;;;;;;29.17;18.42;;;8.90;99.90;;;;;;5014944;28;20049;-72
2023/04/08 11:55:49;;;;;;;27.73;18.35;;;8.90;99.90;;;;;;5020684;28;20036;-71
2023/04/08 11:58:15;;;;;;;28.58;15.88;;;8.90;99.90;;;;;;5052209;28;20115;-72
2023/04/08 12:00:41;;;;;;;26.13;16.40;;;8.90;99.90;;;;;;5027822;28;20052;-72
2023/04/08 12:03:07;;;;;;;26.38;17.02;;;8.90;99.90;;;;;;5015148;28;20477;-72
2023/04/08 12:05:33;;;;;;;25.45;15.88;;;8.90;99.90;;;;;;4997944;28;20080;-72
2023/04/08 12:07:59;;;;;;;23.77;15.48;;;8.90;99.90;;;;;;5032635;28;20053;-71
2023/04/08 12:10:25;;;;;;;25.23;14.90;;;8.90;99.90;;;;;;5016913;28;20052;-72
2023/04/08 12:12:50;;;;;;;26.92;16.23;;;8.80;99.90;;;;;;5033275;28;20044;-72
2023/04/08 12:15:16;;;;;;;24.05;14.80;;;8.80;99.90;;;;;;5016326;28;20045;-72
2023/04/08 12:17:42;;;;;;;24.60;14.82;;;8.80;99.90;;;;;;5033992;28;20048;-72
2023/04/08 12:20:09;;;;;;;27.85;15.05;;;8.80;99.90;;;;;;5033988;28;20055;-72
2023/04/08 12:22:35;;;;;;;23.52;14.38;;;8.70;99.90;;;;;;5032961;28;20082;-73
2023/04/08 12:25:02;;;;;;;24.02;15.23;;;8.70;99.90;;;;;;5033062;28;20116;-72
2023/04/08 12:27:29;;;;;;;21.08;13.10;;;8.80;99.90;;;;;;5022261;28;20168;-72
2023/04/08 12:29:55;;;;;;;24.95;14.93;;;8.80;99.90;;;;;;5014242;28;20046;-72
2023/04/08 12:32:21;;;;;;;24.65;15.32;;;8.80;99.90;;;;;;5036813;28;20041;-72
2023/04/08 12:34:46;;;;;;;21.52;14.82;;;8.80;99.90;;;;;;5032700;28;20037;-72
2023/04/08 12:37:12;;;;;;;23.88;13.75;;;8.80;99.90;;;;;;5033951;28;20126;-72
2023/04/08 12:39:38;;;;;;;21.20;13.40;;;8.80;99.90;;;;;;5051023;28;20035;-72
2023/04/08 12:42:03;;;;;;;22.33;12.93;;;8.80;99.90;;;;;;5033956;28;20048;-72
2023/04/08 12:44:29;;;;;;;21.10;13.05;;;8.80;99.90;;;;;;5016253;28;20163;-71